Time;durP1;ratioP1;P1;durP2;ratioP2;P2;SDS_P1;SDS_P2;PMS_P1;PMS_P2;Temp;Humidity;BMP_temperature;BMP_pressure;BME280_temperature;BME280_humidity;BME280_pressure;Samples;Min_cycle;Max_cycle;Signal;HPM_P1;HPM_P2
2023/03/02 00:01:07;;;;;;;34.58;24.17;;;3.00;99.90;;;;;;5053211;28;20066;-44
2023/03/02 00:03:35;;;;;;;34.13;25.30;;;3.00;99.90;;;;;;5055885;28;20115;-40
2023/03/02 00:06:02;;;;;;;33.25;26.05;;;3.10;99.90;;;;;;5055266;28;20066;-42
2023/03/02 00:08:28;;;;;;;35.35;25.23;;;3.00;99.90;;;;;;5053621;28;20067;-35
2023/03/02 00:10:56;;;;;;;33.50;24.17;;;3.00;99.90;;;;;;5042172;28;20347;-41
2023/03/02 00:13:22;;;;;;;34.63;25.27;;;3.00;99.90;;;;;;5055135;28;20056;-39
2023/03/02 00:15:48;;;;;;;40.78;26.60;;;3.00;99.90;;;;;;5055127;28;20123;-38
2023/03/02 00:18:14;;;;;;;33.85;25.17;;;3.00;99.90;;;;;;5054158;28;20650;-39
2023/03/02 00:20:40;;;;;;;35.65;26.15;;;3.00;99.90;;;;;;5054022;28;20048;-42
2023/03/02 00:23:05;;;;;;;34.22;25.48;;;3.00;99.90;;;;;;5043061;28;20049;-41
2023/03/02 00:25:31;;;;;;;37.25;27.13;;;3.00;99.90;;;;;;5056870;28;20302;-39
2023/03/02 00:27:57;;;;;;;36.53;26.85;;;3.00;99.90;;;;;;5055033;28;20075;-43
2023/03/02 00:30:22;;;;;;;34.45;25.48;;;2.90;99.90;;;;;;5054825;28;20060;-37
2023/03/02 00:32:48;;;;;;;37.33;26.65;;;2.90;99.90;;;;;;5054340;28;20052;-38
2023/03/02 00:35:14;;;;;;;33.40;26.17;;;2.90;99.90;;;;;;5074497;28;20066;-40
2023/03/02 00:37:40;;;;;;;38.40;27.40;;;2.90;99.90;;;;;;5043617;28;20227;-45
2023/03/02 00:40:08;;;;;;;36.80;26.33;;;2.90;99.90;;;;;;5054988;28;20494;-38
2023/03/02 00:42:35;;;;;;;37.97;28.17;;;2.80;99.90;;;;;;5054607;28;20059;-47
2023/03/02 00:45:03;;;;;;;39.95;28.05;;;2.80;99.90;;;;;;5055568;28;20517;-39
2023/03/02 00:47:31;;;;;;;38.35;27.13;;;2.80;99.90;;;;;;5035800;28;20135;-42
2023/03/02 00:49:57;;;;;;;42.28;27.70;;;2.80;99.90;;;;;;5047074;28;20138;-42
2023/03/02 00:52:22;;;;;;;39.20;27.42;;;2.80;99.90;;;;;;5048482;28;20040;-40
2023/03/02 00:54:48;;;;;;;38.17;27.55;;;2.70;99.90;;;;;;5061867;28;20101;-39
2023/03/02 00:57:14;;;;;;;39.30;26.77;;;2.70;99.90;;;;;;5072721;28;20040;-38
2023/03/02 00:59:40;;;;;;;41.15;28.42;;;2.70;99.90;;;;;;5054528;28;20497;-45
2023/03/02 01:02:06;;;;;;;41.40;28.80;;;2.70;99.90;;;;;;5053377;28;20048;-41
2023/03/02 01:04:36;;;;;;;42.13;27.67;;;2.70;99.90;;;;;;5062104;28;20123;-37
2023/03/02 01:07:09;;;;;;;38.55;27.58;;;2.70;99.90;;;;;;5067257;28;20052;-37
2023/03/02 01:09:35;;;;;;;44.10;29.85;;;2.70;99.90;;;;;;5054464;28;20052;-42
2023/03/02 01:12:01;;;;;;;41.30;28.13;;;2.60;99.90;;;;;;5054351;28;20048;-40
2023/03/02 01:14:27;;;;;;;45.83;29.70;;;2.70;99.90;;;;;;5036997;28;20213;-37
2023/03/02 01:16:53;;;;;;;46.05;32.00;;;2.60;99.90;;;;;;5053030;28;20045;-42
2023/03/02 01:19:19;;;;;;;42.85;30.08;;;2.60;99.90;;;;;;5053593;28;20044;-41
2023/03/02 01:21:45;;;;;;;46.08;28.75;;;2.60;99.90;;;;;;5053201;28;20052;-41
2023/03/02 01:24:11;;;;;;;40.95;29.77;;;2.70;99.90;;;;;;5053963;28;20406;-42
2023/03/02 01:26:37;;;;;;;40.25;29.17;;;2.70;99.90;;;;;;5053305;28;20060;-37
2023/03/02 01:29:03;;;;;;;39.65;29.23;;;2.70;99.90;;;;;;5054257;28;20431;-44
2023/03/02 01:31:29;;;;;;;41.25;27.85;;;2.70;99.90;;;;;;5068913;28;20048;-42
2023/03/02 01:33:55;;;;;;;44.45;29.25;;;2.60;99.90;;;;;;5073966;28;20052;-41
2023/03/02 01:36:22;;;;;;;41.60;30.27;;;2.60;99.90;;;;;;5073589;28;20517;-42
2023/03/02 01:38:48;;;;;;;42.35;28.95;;;2.50;99.90;;;;;;5064420;28;20056;-44
2023/03/02 01:41:15;;;;;;;42.28;29.25;;;2.50;99.90;;;;;;5052948;28;20578;-36
2023/03/02 01:43:40;;;;;;;41.97;29.38;;;2.50;99.90;;;;;;5063516;28;20829;-46
2023/03/02 01:46:14;;;;;;;46.40;30.05;;;2.50;99.90;;;;;;5072255;28;20131;-36
2023/03/02 01:48:46;;;;;;;45.25;30.40;;;2.40;99.90;;;;;;5073594;28;20047;-41
2023/03/02 01:51:17;;;;;;;42.17;30.52;;;2.40;99.90;;;;;;5055169;28;20522;-43
2023/03/02 01:53:49;;;;;;;45.08;30.95;;;2.30;99.90;;;;;;5054305;28;20514;-35
2023/03/02 01:56:17;;;;;;;42.85;29.42;;;2.30;99.90;;;;;;5054604;28;20071;-44
2023/03/02 01:58:46;;;;;;;46.35;30.70;;;2.30;99.90;;;;;;5066612;28;20056;-38
2023/03/02 02:01:14;;;;;;;47.90;30.27;;;2.30;99.90;;;;;;5073627;28;20048;-39
2023/03/02 02:03:45;;;;;;;46.72;31.75;;;2.30;99.90;;;;;;5060200;28;20093;-39
2023/03/02 02:06:23;;;;;;;44.45;30.30;;;2.20;99.90;;;;;;5055711;28;20052;-45
2023/03/02 02:08:50;;;;;;;44.42;29.15;;;2.30;99.90;;;;;;5023653;28;20130;-44
2023/03/02 02:11:16;;;;;;;48.22;30.35;;;2.10;99.90;;;;;;5056842;28;20515;-37
2023/03/02 02:13:42;;;;;;;47.63;30.63;;;2.10;99.90;;;;;;5058506;28;20051;-41
2023/03/02 02:16:08;;;;;;;50.50;30.48;;;2.10;99.90;;;;;;5067909;28;20123;-35
2023/03/02 02:18:38;;;;;;;47.30;29.92;;;2.10;99.90;;;;;;5062314;28;20135;-47
2023/03/02 02:21:04;;;;;;;44.25;29.58;;;2.20;99.90;;;;;;5066732;28;20048;-49
2023/03/02 02:23:48;;;;;;;47.75;32.25;;;2.10;99.90;;;;;;5058268;28;20083;-43
2023/03/02 02:26:17;;;;;;;49.15;32.33;;;2.20;99.90;;;;;;5039539;28;20060;-43
2023/03/02 02:29:13;;;;;;;46.78;30.38;;;2.10;99.90;;;;;;5042488;28;20437;-39
2023/03/02 02:32:00;;;;;;;46.47;29.67;;;2.20;99.90;;;;;;5043583;28;20048;-43
2023/03/02 02:34:43;;;;;;;44.42;29.60;;;2.20;99.90;;;;;;5070085;28;20051;-41
2023/03/02 02:37:29;;;;;;;41.97;28.83;;;2.20;99.90;;;;;;5058800;28;20053;-39
2023/03/02 02:39:56;;;;;;;43.47;28.52;;;2.20;99.90;;;;;;5055005;28;20051;-43
2023/03/02 02:42:32;;;;;;;44.95;30.02;;;2.20;99.90;;;;;;5056089;28;20071;-42
2023/03/02 02:45:02;;;;;;;43.65;29.90;;;2.20;99.90;;;;;;5057491;28;20099;-36
2023/03/02 02:47:28;;;;;;;46.42;30.48;;;2.20;99.90;;;;;;5056656;28;20520;-39
2023/03/02 02:49:55;;;;;;;46.30;30.98;;;2.20;99.90;;;;;;5057032;28;20056;-43
2023/03/02 02:52:23;;;;;;;49.03;30.65;;;2.20;99.90;;;;;;5057366;28;20048;-44
2023/03/02 02:54:52;;;;;;;46.42;29.45;;;2.20;99.90;;;;;;5076990;28;20051;-38
2023/03/02 02:57:20;;;;;;;48.13;30.83;;;2.10;99.90;;;;;;5063205;28;20071;-42
2023/03/02 02:59:49;;;;;;;46.50;29.75;;;2.10;99.90;;;;;;5076892;28;20052;-37
2023/03/02 03:02:24;;;;;;;53.15;30.02;;;2.10;99.90;;;;;;5037552;28;20048;-43
2023/03/02 03:04:50;;;;;;;46.65;29.38;;;2.20;99.90;;;;;;5064764;28;20044;-39
2023/03/02 03:07:22;;;;;;;53.72;30.70;;;2.10;99.90;;;;;;5058384;28;20380;-38
2023/03/02 03:09:54;;;;;;;46.60;29.92;;;2.10;99.90;;;;;;5064733;28;20141;-38
2023/03/02 03:12:23;;;;;;;46.45;29.95;;;2.10;99.90;;;;;;5069102;28;20449;-38
2023/03/02 03:14:49;;;;;;;49.47;31.25;;;2.00;99.90;;;;;;5069078;28;20997;-41
2023/03/02 03:17:15;;;;;;;51.15;31.38;;;2.00;99.90;;;;;;5057001;28;20430;-42
2023/03/02 03:19:44;;;;;;;47.38;29.88;;;2.10;99.90;;;;;;5062094;28;20106;-43
2023/03/02 03:22:11;;;;;;;55.22;34.00;;;2.10;99.90;;;;;;5062420;28;20127;-41
2023/03/02 03:24:38;;;;;;;50.47;31.42;;;2.00;99.90;;;;;;5043253;28;20048;-41
2023/03/02 03:27:06;;;;;;;49.28;31.58;;;2.00;99.90;;;;;;5049315;28;20048;-43
2023/03/02 03:29:33;;;;;;;50.92;30.75;;;2.00;99.90;;;;;;5042767;28;20839;-40
2023/03/02 03:32:00;;;;;;;50.85;32.28;;;2.00;99.90;;;;;;5070695;28;20471;-43
2023/03/02 03:34:27;;;;;;;57.40;34.13;;;2.00;99.90;;;;;;5054803;28;20131;-36
2023/03/02 03:36:53;;;;;;;49.42;31.00;;;2.00;99.90;;;;;;5055296;28;20072;-50
2023/03/02 03:39:19;;;;;;;53.90;31.90;;;2.00;99.90;;;;;;5054269;28;20473;-43
2023/03/02 03:41:45;;;;;;;55.85;33.85;;;2.00;99.90;;;;;;5062617;28;20040;-42
2023/03/02 03:44:11;;;;;;;57.85;33.92;;;1.90;99.90;;;;;;5043991;28;20068;-39
2023/03/02 03:46:37;;;;;;;47.58;31.30;;;1.90;99.90;;;;;;5068521;28;20044;-44
2023/03/02 03:49:04;;;;;;;58.97;33.75;;;2.00;99.90;;;;;;5054849;28;20044;-39
2023/03/02 03:51:33;;;;;;;55.50;33.35;;;2.00;99.90;;;;;;5069792;28;20048;-46
2023/03/02 03:54:00;;;;;;;60.58;32.08;;;1.90;99.90;;;;;;5041661;28;20151;-47
2023/03/02 03:56:35;;;;;;;59.50;32.33;;;2.00;99.90;;;;;;5055206;28;20051;-36
2023/03/02 03:59:05;;;;;;;63.60;33.42;;;2.00;99.90;;;;;;5055585;28;20124;-42
2023/03/02 04:01:40;;;;;;;54.13;31.73;;;1.90;99.90;;;;;;5054807;28;20091;-36
2023/03/02 04:04:09;;;;;;;81.30;34.33;;;1.90;99.90;;;;;;5055237;28;20052;-39
2023/03/02 04:06:36;;;;;;;65.65;33.65;;;1.90;99.90;;;;;;5054260;28;20098;-40
2023/03/02 04:09:03;;;;;;;55.30;32.45;;;1.90;99.90;;;;;;5067788;28;20101;-39
2023/03/02 04:11:41;;;;;;;68.22;34.15;;;1.80;99.90;;;;;;5049288;28;20059;-41
2023/03/02 04:14:08;;;;;;;59.85;34.08;;;1.90;99.90;;;;;;5048846;28;20059;-39
2023/03/02 04:16:34;;;;;;;63.97;35.60;;;1.90;99.90;;;;;;5041441;28;20088;-46
2023/03/02 04:19:00;;;;;;;63.60;34.25;;;1.90;99.90;;;;;;5044291;28;20163;-46
2023/03/02 04:21:27;;;;;;;78.28;36.03;;;1.90;99.90;;;;;;5074222;28;20048;-36
2023/03/02 04:23:52;;;;;;;72.65;36.33;;;1.80;99.90;;;;;;5071157;28;20102;-40
2023/03/02 04:26:18;;;;;;;73.93;35.22;;;1.80;99.90;;;;;;5037592;28;20056;-43
2023/03/02 04:28:44;;;;;;;74.25;35.53;;;1.80;99.90;;;;;;5054084;28;20095;-39
2023/03/02 04:31:09;;;;;;;85.88;36.22;;;1.70;99.90;;;;;;5053896;28;20382;-38
2023/03/02 04:33:35;;;;;;;104.80;35.30;;;1.70;99.90;;;;;;5060091;28;20056;-45
2023/03/02 04:36:01;;;;;;;70.78;35.88;;;1.70;99.90;;;;;;5062086;28;20052;-40
2023/03/02 04:38:28;;;;;;;79.75;34.75;;;1.60;99.90;;;;;;5067918;28;20049;-36
2023/03/02 04:40:57;;;;;;;88.93;36.15;;;1.60;99.90;;;;;;5053463;28;20573;-39
2023/03/02 04:43:24;;;;;;;68.40;33.20;;;1.60;99.90;;;;;;5057004;28;20625;-40
2023/03/02 04:45:51;;;;;;;64.53;32.30;;;1.60;99.90;;;;;;5054117;28;20076;-42
2023/03/02 04:48:17;;;;;;;64.03;33.03;;;1.60;99.90;;;;;;5056020;28;20042;-38
2023/03/02 04:50:43;;;;;;;118.45;33.80;;;1.50;99.90;;;;;;5053141;28;20083;-35
2023/03/02 04:53:10;;;;;;;80.82;33.25;;;1.50;99.90;;;;;;5053599;28;20048;-41
2023/03/02 04:55:37;;;;;;;83.20;33.70;;;1.50;99.90;;;;;;5053604;28;20414;-39
2023/03/02 04:58:03;;;;;;;85.05;32.53;;;1.50;99.90;;;;;;5061797;28;20075;-36
2023/03/02 05:00:32;;;;;;;78.30;34.70;;;1.50;99.90;;;;;;5042480;28;20127;-41
2023/03/02 05:02:59;;;;;;;72.38;34.03;;;1.50;99.90;;;;;;5053876;28;20505;-39
2023/03/02 05:05:25;;;;;;;90.25;35.78;;;1.50;99.90;;;;;;5068659;28;20059;-40
2023/03/02 05:07:51;;;;;;;70.15;35.17;;;1.50;99.90;;;;;;5073252;28;20059;-46
2023/03/02 05:10:18;;;;;;;64.47;32.85;;;1.50;99.90;;;;;;5059364;28;20052;-40
2023/03/02 05:12:53;;;;;;;69.10;34.40;;;1.50;99.90;;;;;;5065165;28;20134;-43
2023/03/02 05:15:23;;;;;;;71.43;36.53;;;1.50;99.90;;;;;;5071106;28;20055;-41
2023/03/02 05:17:49;;;;;;;84.15;38.22;;;1.60;99.90;;;;;;5055501;28;20628;-42
2023/03/02 05:20:15;;;;;;;104.75;42.90;;;1.60;99.90;;;;;;5045851;28;20047;-39
2023/03/02 05:22:41;;;;;;;74.82;37.28;;;1.50;99.90;;;;;;5062584;28;20056;-38
2023/03/02 05:25:07;;;;;;;76.60;35.35;;;1.60;99.90;;;;;;5061709;28;20563;-37
2023/03/02 05:27:32;;;;;;;75.07;35.05;;;1.70;99.90;;;;;;5073493;28;20044;-36
2023/03/02 05:29:58;;;;;;;77.95;32.97;;;1.60;99.90;;;;;;5056166;28;20497;-46
2023/03/02 05:32:24;;;;;;;97.03;35.78;;;1.70;99.90;;;;;;5063340;28;20564;-41
2023/03/02 05:34:49;;;;;;;69.28;32.58;;;1.60;99.90;;;;;;5057099;28;20413;-41
2023/03/02 05:37:15;;;;;;;66.88;34.28;;;1.60;99.90;;;;;;5052240;28;20051;-44
2023/03/02 05:39:41;;;;;;;63.22;30.40;;;1.50;99.90;;;;;;5052698;28;20051;-43
2023/03/02 05:42:06;;;;;;;75.57;34.28;;;1.50;99.90;;;;;;5052739;28;20573;-38
2023/03/02 05:44:32;;;;;;;68.70;34.20;;;1.50;99.90;;;;;;5053550;28;20053;-39
2023/03/02 05:46:58;;;;;;;75.38;33.00;;;1.60;99.90;;;;;;5035982;28;20095;-35
2023/03/02 05:49:23;;;;;;;120.88;35.50;;;1.50;99.90;;;;;;5056069;28;20051;-41
2023/03/02 05:51:49;;;;;;;84.90;30.30;;;1.50;99.90;;;;;;5063418;28;20048;-47
2023/03/02 05:54:15;;;;;;;100.05;35.15;;;1.50;99.90;;;;;;5069701;28;20048;-42
2023/03/02 05:56:41;;;;;;;89.35;33.78;;;1.60;99.90;;;;;;5063514;28;20414;-46
2023/03/02 05:59:07;;;;;;;68.93;34.47;;;1.50;99.90;;;;;;5071473;28;20056;-43
2023/03/02 06:01:35;;;;;;;89.68;34.25;;;1.60;99.90;;;;;;5073694;28;20051;-39
2023/03/02 06:04:01;;;;;;;89.35;34.90;;;1.50;99.90;;;;;;5071745;28;20235;-40
2023/03/02 06:06:27;;;;;;;79.68;34.75;;;1.50;99.90;;;;;;5063115;28;20545;-40
2023/03/02 06:08:52;;;;;;;103.15;34.58;;;1.50;99.90;;;;;;5052031;28;20674;-37
2023/03/02 06:11:18;;;;;;;115.10;38.40;;;1.40;99.90;;;;;;5062499;28;20044;-41
2023/03/02 06:13:44;;;;;;;78.28;34.83;;;1.50;99.90;;;;;;5071698;28;20060;-37
2023/03/02 06:16:09;;;;;;;90.72;34.33;;;1.40;99.90;;;;;;5063857;28;20045;-41
2023/03/02 06:18:37;;;;;;;129.27;36.10;;;1.50;99.90;;;;;;5069013;28;20055;-42
2023/03/02 06:21:03;;;;;;;101.65;36.80;;;1.40;99.90;;;;;;5072312;28;20055;-35
2023/03/02 06:23:29;;;;;;;100.07;38.15;;;1.40;99.90;;;;;;5034884;28;20566;-35
2023/03/02 06:25:56;;;;;;;80.57;36.83;;;1.40;99.90;;;;;;5053065;28;20041;-38
2023/03/02 06:28:22;;;;;;;97.05;37.38;;;1.50;99.90;;;;;;5051618;28;20617;-36
2023/03/02 06:30:48;;;;;;;83.03;36.58;;;1.60;99.90;;;;;;5051850;28;20171;-36
2023/03/02 06:33:19;;;;;;;74.43;35.47;;;1.50;99.90;;;;;;5052246;28;20529;-37
2023/03/02 06:35:46;;;;;;;297.77;46.45;;;1.50;99.90;;;;;;5063138;28;20466;-44
2023/03/02 06:38:12;;;;;;;129.32;36.53;;;1.50;99.90;;;;;;5068211;28;20594;-44
2023/03/02 06:40:37;;;;;;;132.30;35.25;;;1.60;99.90;;;;;;5051959;28;20044;-38
2023/03/02 06:43:03;;;;;;;231.77;42.10;;;1.60;99.90;;;;;;5052724;28;20055;-36
2023/03/02 06:45:32;;;;;;;546.78;75.95;;;1.60;99.90;;;;;;5060866;28;20049;-37
2023/03/02 06:47:58;;;;;;;74.50;34.80;;;1.60;99.90;;;;;;5047446;28;20060;-36
2023/03/02 06:50:24;;;;;;;107.22;35.88;;;1.60;99.90;;;;;;5043309;28;20474;-39
2023/03/02 06:52:50;;;;;;;137.00;38.20;;;1.50;99.90;;;;;;5062193;28;20052;-44
2023/03/02 06:55:15;;;;;;;258.27;40.83;;;1.60;99.90;;;;;;5064251;28;20041;-43
2023/03/02 06:57:41;;;;;;;102.32;32.55;;;1.60;99.90;;;;;;5074813;28;20100;-40
2023/03/02 07:00:13;;;;;;;133.52;34.40;;;1.60;99.90;;;;;;5064261;28;20428;-36
2023/03/02 07:02:38;;;;;;;125.95;34.28;;;1.60;99.90;;;;;;5056259;28;20134;-38
2023/03/02 07:05:05;;;;;;;115.68;34.17;;;1.60;99.90;;;;;;5056078;28;20083;-47
2023/03/02 07:07:31;;;;;;;77.60;32.17;;;1.60;99.90;;;;;;5056377;28;20056;-39
2023/03/02 07:09:56;;;;;;;109.93;32.78;;;1.60;99.90;;;;;;5055812;28;20075;-42
2023/03/02 07:12:22;;;;;;;90.40;31.48;;;1.60;99.90;;;;;;5062554;28;20067;-41
2023/03/02 07:14:48;;;;;;;93.88;32.38;;;1.50;99.90;;;;;;5076764;28;20050;-39
2023/03/02 07:17:13;;;;;;;119.18;34.25;;;1.60;99.90;;;;;;5055968;28;20063;-35
2023/03/02 07:19:39;;;;;;;117.85;34.78;;;1.50;99.90;;;;;;5067099;28;20060;-36
2023/03/02 07:22:05;;;;;;;74.00;32.30;;;1.50;99.90;;;;;;5075447;28;20044;-42
2023/03/02 07:24:31;;;;;;;112.32;35.97;;;1.50;99.90;;;;;;5067180;28;20177;-39
2023/03/02 07:26:57;;;;;;;92.07;31.58;;;1.50;99.90;;;;;;5055217;28;20530;-35
2023/03/02 07:29:22;;;;;;;92.15;33.03;;;1.60;99.90;;;;;;5056040;28;20055;-43
2023/03/02 07:31:54;;;;;;;93.32;33.55;;;1.70;99.90;;;;;;5059988;28;20142;-42
2023/03/02 07:34:20;;;;;;;104.35;34.65;;;1.60;99.90;;;;;;5063298;28;20084;-44
2023/03/02 07:36:45;;;;;;;91.57;31.77;;;1.50;99.90;;;;;;5054935;28;20131;-45
2023/03/02 07:39:11;;;;;;;130.13;34.22;;;1.60;99.90;;;;;;5055528;28;20473;-38
2023/03/02 07:41:37;;;;;;;87.63;34.80;;;1.70;99.90;;;;;;5042913;28;20204;-35
2023/03/02 07:44:02;;;;;;;117.95;34.17;;;1.70;99.90;;;;;;5064098;28;20049;-41
2023/03/02 07:46:28;;;;;;;89.90;31.58;;;1.70;99.90;;;;;;5075722;28;20535;-44
2023/03/02 07:48:54;;;;;;;104.22;32.72;;;1.70;99.90;;;;;;5076054;28;20074;-38
2023/03/02 07:51:19;;;;;;;91.50;34.72;;;1.70;99.90;;;;;;5069112;28;20055;-39
2023/03/02 07:53:45;;;;;;;95.15;30.92;;;1.80;99.90;;;;;;5073526;28;20139;-38
2023/03/02 07:56:11;;;;;;;80.47;30.48;;;1.90;99.90;;;;;;5059980;28;20041;-41
2023/03/02 07:58:37;;;;;;;80.35;31.23;;;1.90;99.90;;;;;;5052415;28;20063;-35
2023/03/02 08:01:03;;;;;;;82.45;30.75;;;1.80;99.90;;;;;;5053163;28;20053;-41
2023/03/02 08:03:29;;;;;;;92.38;31.77;;;1.90;99.90;;;;;;5053012;28;20092;-41
2023/03/02 08:05:55;;;;;;;79.22;29.33;;;1.90;99.90;;;;;;5030496;28;20519;-40
2023/03/02 08:08:20;;;;;;;77.95;30.58;;;2.00;99.90;;;;;;5047405;28;20052;-41
2023/03/02 08:10:46;;;;;;;74.85;30.45;;;1.90;99.90;;;;;;5054234;28;20040;-46
2023/03/02 08:13:12;;;;;;;84.55;29.98;;;1.90;99.90;;;;;;5037986;28;20131;-38
2023/03/02 08:15:37;;;;;;;86.65;29.27;;;2.00;99.90;;;;;;5036812;28;20433;-44
2023/03/02 08:18:03;;;;;;;73.22;27.73;;;1.90;99.90;;;;;;5035788;28;20040;-40
2023/03/02 08:20:29;;;;;;;105.78;30.20;;;1.90;99.90;;;;;;5023789;28;20411;-38
2023/03/02 08:22:54;;;;;;;110.90;31.10;;;1.90;99.90;;;;;;5040297;28;20580;-39
2023/03/02 08:25:20;;;;;;;71.10;29.70;;;2.00;99.90;;;;;;5041652;28;20083;-43
2023/03/02 08:27:46;;;;;;;57.63;27.17;;;2.00;99.90;;;;;;5049564;28;20143;-38
2023/03/02 08:30:12;;;;;;;50.45;25.75;;;2.10;99.90;;;;;;5072136;28;20083;-41
2023/03/02 08:32:38;;;;;;;52.65;25.55;;;2.10;99.90;;;;;;5061810;28;20108;-41
2023/03/02 08:35:05;;;;;;;45.13;23.48;;;2.10;99.90;;;;;;5049490;28;20102;-46
2023/03/02 08:37:31;;;;;;;46.70;24.08;;;2.10;99.90;;;;;;5054805;28;20115;-39
2023/03/02 08:39:56;;;;;;;49.60;25.80;;;2.10;99.90;;;;;;5053724;28;20521;-39
2023/03/02 08:42:22;;;;;;;46.78;25.70;;;2.10;99.90;;;;;;5053279;28;20051;-37
2023/03/02 08:44:48;;;;;;;55.72;26.33;;;2.10;99.90;;;;;;5056262;28;20036;-37
2023/03/02 08:47:13;;;;;;;55.15;27.13;;;2.10;99.90;;;;;;5053203;28;20092;-36
2023/03/02 08:49:39;;;;;;;55.38;27.63;;;2.20;99.90;;;;;;5053504;28;20056;-44
2023/03/02 08:52:05;;;;;;;51.35;27.00;;;2.20;99.90;;;;;;5054173;28;20127;-43
2023/03/02 08:54:33;;;;;;;46.10;25.50;;;2.30;99.90;;;;;;5072536;28;20056;-41
2023/03/02 08:57:00;;;;;;;46.72;27.00;;;2.30;99.90;;;;;;5059656;28;20558;-39
2023/03/02 08:59:26;;;;;;;40.97;25.02;;;2.50;99.90;;;;;;5052716;28;20040;-39
2023/03/02 09:01:52;;;;;;;40.20;24.08;;;2.60;99.90;;;;;;5051585;28;20514;-38
2023/03/02 09:04:18;;;;;;;39.72;23.73;;;2.60;99.90;;;;;;5073511;28;20054;-46
2023/03/02 09:06:44;;;;;;;41.85;24.75;;;2.70;99.90;;;;;;5060946;28;20812;-35
2023/03/02 09:09:12;;;;;;;41.67;25.90;;;2.60;99.90;;;;;;5046686;28;20043;-43
2023/03/02 09:11:38;;;;;;;38.28;24.50;;;2.60;99.90;;;;;;5058635;28;20060;-39
2023/03/02 09:14:04;;;;;;;38.72;24.33;;;2.80;99.90;;;;;;5047324;28;20056;-46
2023/03/02 09:16:30;;;;;;;34.28;22.67;;;2.80;99.90;;;;;;5037070;28;20502;-44
2023/03/02 09:18:56;;;;;;;33.67;23.60;;;2.90;99.90;;;;;;5053376;28;20044;-38
2023/03/02 09:21:23;;;;;;;34.47;23.80;;;2.90;99.90;;;;;;5054782;28;20129;-42
2023/03/02 09:23:52;;;;;;;33.90;23.25;;;3.00;99.90;;;;;;5051713;28;20503;-40
2023/03/02 09:26:19;;;;;;;35.30;23.83;;;3.00;99.90;;;;;;5055921;28;20507;-42
2023/03/02 09:28:45;;;;;;;33.97;23.70;;;3.10;99.90;;;;;;5050232;28;20094;-43
2023/03/02 09:31:11;;;;;;;37.90;24.95;;;3.10;99.90;;;;;;5050074;28;20509;-48
2023/03/02 09:33:37;;;;;;;38.97;25.50;;;3.10;99.90;;;;;;5052132;28;20044;-38
2023/03/02 09:36:07;;;;;;;36.83;25.73;;;3.10;99.90;;;;;;5053457;28;20051;-45
2023/03/02 09:38:33;;;;;;;40.58;26.35;;;3.10;99.90;;;;;;5050553;28;20110;-38
2023/03/02 09:41:11;;;;;;;39.72;26.55;;;3.20;99.90;;;;;;5054364;28;20056;-40
2023/03/02 09:44:14;;;;;;;37.72;25.08;;;3.20;99.90;;;;;;5054511;28;20059;-39
2023/03/02 09:46:49;;;;;;;35.28;25.35;;;3.30;99.90;;;;;;5052966;28;20151;-44
2023/03/02 09:49:53;;;;;;;39.25;26.55;;;3.40;99.90;;;;;;5054959;28;20044;-41
2023/03/02 09:52:18;;;;;;;41.77;28.27;;;3.50;99.90;;;;;;5047996;28;20044;-44
2023/03/02 09:54:44;;;;;;;38.03;27.23;;;3.40;99.90;;;;;;5073623;28;20309;-39
2023/03/02 09:57:19;;;;;;;51.92;33.80;;;3.50;99.90;;;;;;5058552;28;20049;-43
2023/03/02 09:59:50;;;;;;;42.08;27.80;;;3.50;99.90;;;;;;5050771;28;20147;-46
2023/03/02 10:02:22;;;;;;;44.38;28.27;;;3.50;99.90;;;;;;5054647;28;20046;-37
2023/03/02 10:04:52;;;;;;;46.83;30.15;;;3.60;99.90;;;;;;5058964;28;20044;-38
2023/03/02 10:07:32;;;;;;;41.50;27.92;;;3.60;99.90;;;;;;5054425;28;20473;-39
2023/03/02 10:10:21;;;;;;;43.10;29.33;;;3.60;99.90;;;;;;5041112;28;20052;-38
2023/03/02 10:13:33;;;;;;;43.55;28.35;;;3.60;99.90;;;;;;5034250;28;20524;-38
2023/03/02 10:16:24;;;;;;;39.17;27.40;;;3.70;99.90;;;;;;5028980;28;20052;-39
2023/03/02 10:19:28;;;;;;;38.20;26.92;;;3.70;99.90;;;;;;5039220;28;20122;-44
2023/03/02 10:22:12;;;;;;;;;;;3.70;99.90;;;;;;4989071;28;20553;-39
2023/03/02 10:24:43;;;;;;;38.53;25.52;;;3.80;99.90;;;;;;4988661;28;19925;-40
2023/03/02 10:27:24;;;;;;;39.20;26.80;;;3.90;99.90;;;;;;4989093;28;20609;-39
2023/03/02 10:30:02;;;;;;;35.60;26.67;;;4.00;99.90;;;;;;4985696;28;20541;-45
2023/03/02 10:32:35;;;;;;;36.53;26.23;;;4.10;99.90;;;;;;4992470;28;20062;-43
2023/03/02 10:35:12;;;;;;;35.47;26.38;;;4.20;99.90;;;;;;4993168;28;20050;-44
2023/03/02 10:37:38;;;;;;;35.22;25.58;;;4.30;99.90;;;;;;4990711;28;20072;-43
2023/03/02 10:40:24;;;;;;;33.72;25.00;;;4.50;99.90;;;;;;4975343;28;20449;-36
2023/03/02 10:42:50;;;;;;;33.35;25.45;;;4.60;99.90;;;;;;4990140;28;20275;-48
2023/03/02 10:45:42;;;;;;;33.65;25.00;;;4.70;99.90;;;;;;4993148;28;20061;-39
2023/03/02 10:48:11;;;;;;;34.97;25.13;;;4.70;99.90;;;;;;4980032;28;20505;-43
2023/03/02 10:50:37;;;;;;;34.88;25.88;;;4.70;99.90;;;;;;4990983;28;20094;-41
2023/03/02 10:53:12;;;;;;;33.42;24.85;;;4.90;99.90;;;;;;4990209;28;20132;-43
2023/03/02 10:55:44;;;;;;;32.75;25.42;;;5.10;99.90;;;;;;4989572;28;20125;-45
2023/03/02 10:58:30;;;;;;;30.05;23.23;;;5.20;99.90;;;;;;5033072;28;20068;-44
2023/03/02 11:01:16;;;;;;;30.75;24.75;;;5.40;99.90;;;;;;5036568;28;20216;-45
2023/03/02 11:03:41;;;;;;;29.25;23.05;;;5.50;99.90;;;;;;5041702;28;20464;-39
2023/03/02 11:06:17;;;;;;;27.00;22.00;;;5.50;99.90;;;;;;5042942;28;20049;-36
2023/03/02 11:08:43;;;;;;;30.77;22.73;;;5.40;99.90;;;;;;5036166;28;20049;-45
2023/03/02 11:11:23;;;;;;;28.98;22.52;;;5.40;99.90;;;;;;5042636;28;20123;-45
2023/03/02 11:13:49;;;;;;;31.17;23.48;;;5.30;99.90;;;;;;5048118;28;20479;-47
2023/03/02 11:16:18;;;;;;;28.33;22.80;;;5.30;99.90;;;;;;5046947;28;20055;-45
2023/03/02 11:18:56;;;;;;;24.40;19.50;;;5.40;99.90;;;;;;5051125;28;20047;-39
2023/03/02 11:21:29;;;;;;;27.30;21.33;;;5.50;99.90;;;;;;5040627;28;20071;-43
2023/03/02 11:24:15;;;;;;;25.10;19.98;;;5.60;99.90;;;;;;5038062;28;20574;-43
2023/03/02 11:26:49;;;;;;;25.00;19.67;;;5.60;99.90;;;;;;5052540;28;20118;-45
2023/03/02 11:29:33;;;;;;;26.25;20.52;;;5.60;99.90;;;;;;5062256;28;20127;-43
2023/03/02 11:32:29;;;;;;;23.42;18.90;;;5.60;99.90;;;;;;5063409;28;20147;-45
2023/03/02 11:35:07;;;;;;;25.70;19.95;;;5.60;99.90;;;;;;5050912;28;20413;-43
2023/03/02 11:37:45;;;;;;;26.88;19.05;;;5.60;99.90;;;;;;5058702;28;20044;-44
2023/03/02 11:40:16;;;;;;;24.95;19.02;;;5.70;99.90;;;;;;5062296;28;20048;-40
2023/03/02 11:42:44;;;;;;;25.30;19.48;;;5.70;99.90;;;;;;5061169;28;20458;-45
2023/03/02 11:45:12;;;;;;;23.38;18.67;;;5.70;99.90;;;;;;5071720;28;20204;-38
2023/03/02 11:47:51;;;;;;;25.23;18.65;;;5.80;99.90;;;;;;5057414;28;20539;-46
2023/03/02 11:50:18;;;;;;;23.23;18.95;;;5.80;99.90;;;;;;5061791;28;20178;-37
2023/03/02 11:52:50;;;;;;;26.27;20.13;;;5.80;99.90;;;;;;5051578;28;20152;-44
2023/03/02 11:55:25;;;;;;;27.05;19.52;;;5.90;99.90;;;;;;5064325;28;20052;-40
2023/03/02 11:58:00;;;;;;;27.85;20.25;;;5.90;99.90;;;;;;5040323;28;20607;-45
2023/03/02 12:00:41;;;;;;;25.25;19.40;;;6.00;99.90;;;;;;5061781;28;20052;-43
2023/03/02 12:03:20;;;;;;;26.02;19.92;;;6.10;99.90;;;;;;5045755;28;20409;-42
2023/03/02 12:06:23;;;;;;;26.55;20.95;;;6.20;99.90;;;;;;5068368;28;20084;-39
2023/03/02 12:09:06;;;;;;;25.20;21.10;;;6.20;99.90;;;;;;5021179;28;20658;-40
2023/03/02 12:11:37;;;;;;;26.98;20.58;;;6.20;99.90;;;;;;5068397;28;20044;-43
2023/03/02 12:14:25;;;;;;;28.95;21.42;;;6.30;99.90;;;;;;5063711;28;20721;-37
2023/03/02 12:17:01;;;;;;;26.60;19.42;;;6.40;99.90;;;;;;5060723;28;20087;-43
2023/03/02 12:19:39;;;;;;;24.63;19.52;;;6.50;99.90;;;;;;5061351;28;20056;-38
2023/03/02 12:22:09;;;;;;;27.00;20.90;;;6.70;99.90;;;;;;5054951;28;20075;-46
2023/03/02 12:24:38;;;;;;;27.02;21.40;;;6.80;99.90;;;;;;5069564;28;20119;-46
2023/03/02 12:27:12;;;;;;;22.38;17.35;;;6.70;99.90;;;;;;5065752;28;20522;-43
2023/03/02 12:30:09;;;;;;;22.55;17.38;;;6.80;99.90;;;;;;5067009;28;20052;-45
2023/03/02 12:32:36;;;;;;;22.90;17.58;;;6.80;99.90;;;;;;5055934;28;20083;-43
2023/03/02 12:35:07;;;;;;;23.10;18.08;;;6.90;99.90;;;;;;5068096;28;20048;-45
2023/03/02 12:37:43;;;;;;;22.35;17.75;;;7.00;99.90;;;;;;5052269;28;20651;-41
2023/03/02 12:40:40;;;;;;;21.73;16.45;;;7.00;99.90;;;;;;5065094;28;20048;-41
2023/03/02 12:43:26;;;;;;;23.42;18.17;;;7.00;99.90;;;;;;5054386;28;20055;-45
2023/03/02 12:46:28;;;;;;;19.00;13.80;;;7.10;99.90;;;;;;5053867;28;20127;-41
2023/03/02 12:49:10;;;;;;;21.00;15.95;;;7.10;99.90;;;;;;5055670;28;20592;-44